Time;durP1;ratioP1;P1;durP2;ratioP2;P2;SDS_P1;SDS_P2;PMS_P1;PMS_P2;Temp;Humidity;BMP_temperature;BMP_pressure;BME280_temperature;BME280_humidity;BME280_pressure;Samples;Min_cycle;Max_cycle;Signal;HPM_P1;HPM_P2
2022/11/26 00:00:46;;;;;;;20.98;5.32;;;;;;;;;;4947516;28;20086;-75
2022/11/26 00:03:13;;;;;;;49.35;17.80;;;;;;;;;;4945938;28;20027;-74
2022/11/26 00:05:40;;;;;;;17.75;6.05;;;;;;;;;;4949012;28;20031;-73
2022/11/26 00:08:14;;;;;;;25.15;7.65;;;;;;;;;;4952393;28;20404;-71
2022/11/26 00:10:40;;;;;;;22.83;4.78;;;;;;;;;;4949145;28;20031;-72
2022/11/26 00:13:14;;;;;;;24.95;5.75;;;;;;;;;;4951887;28;20110;-73
2022/11/26 00:15:40;;;;;;;25.85;5.70;;;;;;;;;;4949531;28;20088;-72
2022/11/26 00:18:06;;;;;;;25.45;4.70;;;;;;;;;;4954247;28;20122;-72
2022/11/26 00:20:32;;;;;;;30.48;5.45;;;;;;;;;;4928238;29;20417;-73
2022/11/26 00:23:03;;;;;;;29.40;5.57;;;;;;;;;;4924561;29;20052;-73
2022/11/26 00:25:37;;;;;;;26.58;5.15;;;;;;;;;;4930650;29;20469;-72
2022/11/26 00:28:03;;;;;;;33.20;5.13;;;;;;;;;;4929518;29;20023;-71
2022/11/26 00:30:29;;;;;;;25.38;5.13;;;;;;;;;;4926217;29;20517;-72
2022/11/26 00:32:55;;;;;;;24.98;4.35;;;;;;;;;;4923404;29;20114;-72
2022/11/26 00:35:22;;;;;;;25.25;6.85;;;;;;;;;;4930207;29;20307;-71
2022/11/26 00:37:51;;;;;;;24.08;5.55;;;;;;;;;;4930189;29;20039;-72
2022/11/26 00:40:25;;;;;;;26.73;5.75;;;;;;;;;;4927960;29;20038;-72
2022/11/26 00:42:51;;;;;;;32.80;5.88;;;;;;;;;;4934037;29;20136;-72
2022/11/26 00:45:27;;;;;;;20.23;4.75;;;;;;;;;;4933546;29;20039;-72
2022/11/26 00:48:00;;;;;;;17.73;4.38;;;;;;;;;;4928104;29;20044;-72
2022/11/26 00:50:26;;;;;;;;;;;;;;;;;;4925658;29;20028;-71
2022/11/26 00:52:56;;;;;;;20.73;5.03;;;;;;;;;;4937589;29;20343;-74
2022/11/26 00:55:39;;;;;;;21.70;5.38;;;;;;;;;;4926716;29;20366;-72
2022/11/26 00:58:06;;;;;;;37.67;7.13;;;;;;;;;;4928890;29;20051;-72
2022/11/26 01:00:33;;;;;;;28.30;5.95;;;;;;;;;;4929213;29;20028;-74
2022/11/26 01:02:59;;;;;;;19.77;4.43;;;;;;;;;;4934699;29;20127;-74
2022/11/26 01:05:29;;;;;;;20.15;5.32;;;;;;;;;;4925128;29;20057;-73
2022/11/26 01:07:57;;;;;;;24.90;5.28;;;;;;;;;;4927474;29;20184;-74
2022/11/26 01:10:27;;;;;;;26.85;5.18;;;;;;;;;;4927636;29;20111;-74
2022/11/26 01:12:53;;;;;;;25.70;6.82;;;;;;;;;;4931896;29;20043;-72
2022/11/26 01:15:20;;;;;;;20.05;4.60;;;;;;;;;;4928037;29;20095;-71
2022/11/26 01:17:47;;;;;;;27.83;4.65;;;;;;;;;;4928403;29;20031;-73
2022/11/26 01:20:19;;;;;;;20.73;5.03;;;;;;;;;;4929682;28;20048;-74
2022/11/26 01:22:45;;;;;;;21.85;4.03;;;;;;;;;;4928955;29;20426;-77
2022/11/26 01:25:11;;;;;;;29.85;5.18;;;;;;;;;;4937120;29;20536;-76
2022/11/26 01:27:37;;;;;;;26.98;4.68;;;;;;;;;;4933224;29;20058;-73
2022/11/26 01:30:03;;;;;;;21.65;4.07;;;;;;;;;;4928961;29;20039;-72
2022/11/26 01:32:29;;;;;;;19.92;4.28;;;;;;;;;;4911765;29;20442;-70
2022/11/26 01:34:55;;;;;;;31.77;4.72;;;;;;;;;;4926919;29;20527;-72
2022/11/26 01:37:21;;;;;;;32.33;4.97;;;;;;;;;;4934148;29;20362;-74
2022/11/26 01:39:47;;;;;;;26.27;5.38;;;;;;;;;;4930849;29;20520;-72
2022/11/26 01:42:28;;;;;;;28.52;4.97;;;;;;;;;;4931529;29;20541;-75
2022/11/26 01:44:54;;;;;;;24.13;4.88;;;;;;;;;;4929700;29;20035;-73
2022/11/26 01:47:22;;;;;;;19.13;4.45;;;;;;;;;;4928350;29;20031;-71
2022/11/26 01:50:17;;;;;;;25.83;5.53;;;;;;;;;;4931396;29;20424;-72
2022/11/26 01:52:43;;;;;;;27.67;5.13;;;;;;;;;;4923340;29;20036;-74
2022/11/26 01:55:14;;;;;;;22.25;4.68;;;;;;;;;;4927261;29;20036;-75
2022/11/26 01:57:40;;;;;;;40.28;5.43;;;;;;;;;;4925088;29;20169;-74
2022/11/26 02:00:07;;;;;;;25.30;4.75;;;;;;;;;;4930042;29;20034;-75
2022/11/26 02:02:33;;;;;;;34.33;6.97;;;;;;;;;;4934153;29;20078;-74
2022/11/26 02:04:59;;;;;;;27.00;4.65;;;;;;;;;;4933499;29;20027;-73
2022/11/26 02:07:25;;;;;;;28.58;5.13;;;;;;;;;;4924604;29;20063;-75
2022/11/26 02:09:51;;;;;;;22.23;5.35;;;;;;;;;;4927333;29;20127;-72
2022/11/26 02:12:17;;;;;;;18.45;4.65;;;;;;;;;;4929620;29;20047;-72
2022/11/26 02:14:44;;;;;;;18.27;4.60;;;;;;;;;;4926944;29;20027;-72
2022/11/26 02:17:10;;;;;;;26.40;5.65;;;;;;;;;;4938546;29;20067;-71
2022/11/26 02:19:45;;;;;;;28.23;5.28;;;;;;;;;;4925902;29;20039;-71
2022/11/26 02:22:30;;;;;;;23.65;4.50;;;;;;;;;;4947898;28;20373;-72
2022/11/26 02:24:56;;;;;;;29.55;5.20;;;;;;;;;;4945125;28;20190;-71
2022/11/26 02:27:22;;;;;;;31.95;6.10;;;;;;;;;;4949614;28;20130;-71
2022/11/26 02:29:53;;;;;;;31.00;5.55;;;;;;;;;;4942502;28;20591;-72
2022/11/26 02:32:22;;;;;;;19.02;5.53;;;;;;;;;;4946278;28;20039;-71
2022/11/26 02:35:09;;;;;;;24.10;7.32;;;;;;;;;;4948417;28;20027;-71
2022/11/26 02:37:38;;;;;;;39.67;5.97;;;;;;;;;;4960166;28;20527;-71
2022/11/26 02:40:05;;;;;;;24.50;5.13;;;;;;;;;;4943884;28;20035;-71
2022/11/26 02:42:32;;;;;;;27.48;5.78;;;;;;;;;;4936443;28;20043;-73
2022/11/26 02:45:02;;;;;;;24.60;6.15;;;;;;;;;;4939465;28;20043;-72
2022/11/26 02:47:29;;;;;;;19.90;5.65;;;;;;;;;;4926443;28;20031;-71
2022/11/26 02:50:00;;;;;;;30.42;6.75;;;;;;;;;;4950760;28;20539;-75
2022/11/26 02:52:27;;;;;;;33.22;6.50;;;;;;;;;;4948409;28;20062;-72
2022/11/26 02:54:54;;;;;;;18.35;5.70;;;;;;;;;;4944767;28;20032;-72
2022/11/26 02:57:22;;;;;;;33.17;8.95;;;;;;;;;;4944230;28;20340;-74
2022/11/26 02:59:48;;;;;;;31.25;6.75;;;;;;;;;;4944820;28;20130;-71
2022/11/26 03:02:23;;;;;;;29.98;7.18;;;;;;;;;;4944556;28;20054;-71
2022/11/26 03:04:50;;;;;;;20.17;6.13;;;;;;;;;;4945664;28;20031;-73
2022/11/26 03:07:17;;;;;;;22.67;6.65;;;;;;;;;;4928775;29;20042;-72
2022/11/26 03:09:51;;;;;;;23.17;6.20;;;;;;;;;;4944497;28;20031;-72
2022/11/26 03:12:17;;;;;;;39.53;6.05;;;;;;;;;;4953275;28;20090;-72
2022/11/26 03:14:43;;;;;;;29.60;6.38;;;;;;;;;;4953246;28;20350;-71
2022/11/26 03:17:09;;;;;;;28.33;7.88;;;;;;;;;;4945947;28;20588;-71
2022/11/26 03:19:35;;;;;;;21.50;6.43;;;;;;;;;;4953819;28;20333;-71
2022/11/26 03:22:03;;;;;;;26.05;5.82;;;;;;;;;;4942253;28;20035;-71
2022/11/26 03:24:30;;;;;;;28.23;6.75;;;;;;;;;;4950014;28;20043;-73
2022/11/26 03:26:56;;;;;;;28.85;6.32;;;;;;;;;;4943962;28;20039;-72
2022/11/26 03:29:22;;;;;;;28.17;6.78;;;;;;;;;;4954927;28;20043;-71
2022/11/26 03:31:48;;;;;;;26.92;8.05;;;;;;;;;;4948574;28;20035;-71
2022/11/26 03:34:14;;;;;;;27.33;5.97;;;;;;;;;;4946238;28;20043;-73
2022/11/26 03:36:40;;;;;;;29.88;6.38;;;;;;;;;;4949679;28;20155;-74
2022/11/26 03:39:06;;;;;;;35.63;6.97;;;;;;;;;;4951638;28;20027;-73
2022/11/26 03:41:32;;;;;;;23.38;5.70;;;;;;;;;;4951238;28;20046;-74
2022/11/26 03:43:58;;;;;;;33.10;7.60;;;;;;;;;;4951458;28;20519;-72
2022/11/26 03:46:25;;;;;;;24.08;5.60;;;;;;;;;;4949960;28;20028;-72
2022/11/26 03:48:51;;;;;;;23.42;6.80;;;;;;;;;;4949864;28;20047;-77
2022/11/26 03:51:17;;;;;;;28.30;6.78;;;;;;;;;;4950482;28;20027;-75
2022/11/26 03:53:43;;;;;;;29.42;6.72;;;;;;;;;;4944292;28;20216;-74
2022/11/26 03:56:09;;;;;;;20.50;6.07;;;;;;;;;;4956005;28;20062;-74
2022/11/26 03:58:35;;;;;;;23.55;6.78;;;;;;;;;;4936932;29;20035;-73
2022/11/26 04:01:07;;;;;;;35.00;6.18;;;;;;;;;;4946798;28;20035;-73
2022/11/26 04:03:33;;;;;;;27.88;6.70;;;;;;;;;;4945565;28;20400;-71
2022/11/26 04:05:59;;;;;;;29.92;7.00;;;;;;;;;;4940234;28;20043;-74
2022/11/26 04:08:27;;;;;;;33.67;7.45;;;;;;;;;;4930802;28;20066;-72
2022/11/26 04:10:53;;;;;;;31.05;6.78;;;;;;;;;;4947556;28;20039;-74
2022/11/26 04:13:19;;;;;;;27.10;6.70;;;;;;;;;;4945228;28;20035;-73
2022/11/26 04:15:45;;;;;;;33.83;8.75;;;;;;;;;;4945397;28;20039;-73
2022/11/26 04:18:11;;;;;;;22.85;7.40;;;;;;;;;;4946145;28;20074;-73
2022/11/26 04:20:37;;;;;;;26.27;7.80;;;;;;;;;;4945967;28;20078;-73
2022/11/26 04:23:04;;;;;;;28.80;7.38;;;;;;;;;;4948876;28;21013;-72
2022/11/26 04:25:30;;;;;;;21.20;6.68;;;;;;;;;;4933300;28;20532;-73
2022/11/26 04:27:56;;;;;;;28.80;8.23;;;;;;;;;;4949158;28;20039;-72
2022/11/26 04:30:22;;;;;;;70.18;10.05;;;;;;;;;;4928399;28;20133;-72
2022/11/26 04:32:50;;;;;;;67.85;8.95;;;;;;;;;;4948747;28;20428;-71
2022/11/26 04:35:16;;;;;;;29.92;7.25;;;;;;;;;;4944613;28;20062;-72
2022/11/26 04:37:42;;;;;;;30.60;7.80;;;;;;;;;;4943596;28;20031;-72
2022/11/26 04:40:09;;;;;;;29.23;8.85;;;;;;;;;;4944961;28;20031;-72
2022/11/26 04:42:35;;;;;;;29.60;7.40;;;;;;;;;;4946260;28;20035;-71
2022/11/26 04:45:01;;;;;;;27.33;7.10;;;;;;;;;;4944016;28;20503;-72
2022/11/26 04:47:27;;;;;;;35.00;9.40;;;;;;;;;;4944808;28;20232;-71
2022/11/26 04:49:53;;;;;;;46.75;10.13;;;;;;;;;;4930062;28;20035;-75
2022/11/26 04:52:19;;;;;;;26.50;8.25;;;;;;;;;;4949699;28;20043;-72
2022/11/26 04:54:45;;;;;;;35.55;8.68;;;;;;;;;;4944768;28;20046;-72
2022/11/26 04:57:11;;;;;;;34.65;8.55;;;;;;;;;;4943128;28;20031;-71
2022/11/26 04:59:37;;;;;;;36.45;8.40;;;;;;;;;;4947516;28;20031;-71
2022/11/26 05:02:03;;;;;;;34.55;8.35;;;;;;;;;;4949057;28;20033;-71
2022/11/26 05:04:30;;;;;;;34.28;7.95;;;;;;;;;;4931628;28;20055;-71
2022/11/26 05:06:56;;;;;;;22.75;7.80;;;;;;;;;;4944798;28;20179;-74
2022/11/26 05:09:22;;;;;;;29.95;8.75;;;;;;;;;;4946945;28;20042;-77
2022/11/26 05:11:48;;;;;;;53.75;11.98;;;;;;;;;;4951829;28;20379;-73
2022/11/26 05:14:14;;;;;;;39.80;10.10;;;;;;;;;;4944378;28;20071;-72
2022/11/26 05:16:40;;;;;;;47.33;11.10;;;;;;;;;;4945512;28;20061;-73
2022/11/26 05:19:06;;;;;;;28.90;8.57;;;;;;;;;;4948943;28;20035;-72
2022/11/26 05:21:32;;;;;;;30.05;8.43;;;;;;;;;;4941061;28;20040;-76
2022/11/26 05:23:58;;;;;;;42.95;9.65;;;;;;;;;;4949044;28;20042;-70
2022/11/26 05:26:24;;;;;;;29.45;7.90;;;;;;;;;;4945510;28;20035;-71
2022/11/26 05:28:50;;;;;;;30.38;8.90;;;;;;;;;;4947226;28;20054;-73
2022/11/26 05:31:16;;;;;;;27.38;8.13;;;;;;;;;;4939577;28;20042;-71
2022/11/26 05:33:42;;;;;;;35.15;9.48;;;;;;;;;;4942022;28;20039;-73
2022/11/26 05:36:09;;;;;;;36.83;9.23;;;;;;;;;;4924402;28;20087;-73
2022/11/26 05:38:35;;;;;;;36.22;8.88;;;;;;;;;;4949722;28;20028;-72
2022/11/26 05:41:01;;;;;;;30.48;8.57;;;;;;;;;;4943555;28;20027;-72
2022/11/26 05:43:27;;;;;;;35.97;8.77;;;;;;;;;;4946090;28;20061;-73
2022/11/26 05:45:53;;;;;;;29.80;8.57;;;;;;;;;;4951134;28;20073;-73
2022/11/26 05:48:19;;;;;;;35.72;9.23;;;;;;;;;;4939612;28;20028;-75
2022/11/26 05:50:45;;;;;;;72.13;10.88;;;;;;;;;;4945391;28;20027;-72
2022/11/26 05:53:11;;;;;;;41.63;10.52;;;;;;;;;;4944233;28;20031;-71
2022/11/26 05:55:38;;;;;;;42.63;10.40;;;;;;;;;;4945843;28;20045;-70
2022/11/26 05:58:04;;;;;;;37.90;10.43;;;;;;;;;;4941292;28;20026;-71
2022/11/26 06:00:30;;;;;;;35.58;9.32;;;;;;;;;;4938213;28;21467;-71
2022/11/26 06:02:56;;;;;;;29.17;9.02;;;;;;;;;;4947344;28;22134;-71
2022/11/26 06:05:22;;;;;;;43.17;10.70;;;;;;;;;;4926761;28;20026;-70
2022/11/26 06:07:48;;;;;;;28.85;9.18;;;;;;;;;;4942325;28;20050;-72
2022/11/26 06:10:14;;;;;;;32.78;10.02;;;;;;;;;;4944146;28;20027;-72
2022/11/26 06:12:40;;;;;;;46.33;11.27;;;;;;;;;;4947434;28;20138;-71
2022/11/26 06:15:06;;;;;;;38.45;10.70;;;;;;;;;;4946042;28;20047;-76
2022/11/26 06:17:32;;;;;;;32.90;10.00;;;;;;;;;;4942084;28;20039;-73
2022/11/26 06:19:59;;;;;;;38.17;11.75;;;;;;;;;;4948999;28;20051;-73
2022/11/26 06:22:25;;;;;;;41.17;10.60;;;;;;;;;;4944400;28;20066;-71
2022/11/26 06:24:51;;;;;;;41.55;9.98;;;;;;;;;;4938638;28;20050;-76
2022/11/26 06:27:17;;;;;;;25.92;8.82;;;;;;;;;;4938460;28;20625;-73
2022/11/26 06:29:43;;;;;;;29.65;9.63;;;;;;;;;;4943696;28;20040;-72
2022/11/26 06:32:09;;;;;;;26.10;8.63;;;;;;;;;;4942510;28;20042;-73
2022/11/26 06:34:36;;;;;;;38.00;9.77;;;;;;;;;;4925517;28;20162;-72
2022/11/26 06:37:02;;;;;;;35.78;10.25;;;;;;;;;;4945416;28;20050;-73
2022/11/26 06:39:28;;;;;;;39.97;10.85;;;;;;;;;;4941495;28;20031;-71
2022/11/26 06:41:54;;;;;;;32.67;10.18;;;;;;;;;;4934000;28;20499;-71
2022/11/26 06:44:20;;;;;;;39.30;11.50;;;;;;;;;;4947092;28;20039;-71
2022/11/26 06:46:47;;;;;;;44.90;11.13;;;;;;;;;;4930636;28;20027;-71
2022/11/26 06:49:13;;;;;;;40.80;12.40;;;;;;;;;;4941344;28;20046;-73
2022/11/26 06:51:39;;;;;;;34.92;10.32;;;;;;;;;;4943949;28;20034;-72
2022/11/26 06:54:06;;;;;;;98.80;13.82;;;;;;;;;;4951422;28;20045;-72
2022/11/26 06:56:34;;;;;;;34.88;10.88;;;;;;;;;;4937741;28;20032;-73
2022/11/26 06:59:01;;;;;;;32.05;12.25;;;;;;;;;;4940110;28;20040;-72
2022/11/26 07:01:27;;;;;;;43.88;15.55;;;;;;;;;;4942161;28;20119;-72
2022/11/26 07:03:54;;;;;;;41.67;13.02;;;;;;;;;;4945873;28;20036;-72
2022/11/26 07:06:20;;;;;;;42.88;13.60;;;;;;;;;;4937272;28;20028;-71
2022/11/26 07:08:46;;;;;;;46.03;13.48;;;;;;;;;;4945114;28;20039;-75
2022/11/26 07:11:12;;;;;;;45.17;14.82;;;;;;;;;;4937844;28;20083;-72
2022/11/26 07:13:38;;;;;;;40.80;13.85;;;;;;;;;;4944263;28;20118;-72
2022/11/26 07:16:05;;;;;;;39.97;13.13;;;;;;;;;;4941586;28;20041;-71
2022/11/26 07:18:31;;;;;;;43.28;13.80;;;;;;;;;;4944951;28;20469;-72
2022/11/26 07:20:58;;;;;;;45.05;15.20;;;;;;;;;;4930547;28;20055;-74
2022/11/26 07:23:24;;;;;;;43.20;14.25;;;;;;;;;;4940598;28;20114;-71
2022/11/26 07:25:51;;;;;;;37.72;15.20;;;;;;;;;;4939246;28;20114;-71
2022/11/26 07:28:17;;;;;;;44.53;12.50;;;;;;;;;;4944061;28;20035;-71
2022/11/26 07:30:43;;;;;;;45.47;13.23;;;;;;;;;;4941624;28;20072;-73
2022/11/26 07:33:09;;;;;;;50.35;12.88;;;;;;;;;;4949483;28;20039;-72
2022/11/26 07:35:36;;;;;;;47.30;12.15;;;;;;;;;;4942826;28;20055;-71
2022/11/26 07:38:02;;;;;;;52.78;13.43;;;;;;;;;;4939982;28;20078;-71
2022/11/26 07:40:29;;;;;;;37.45;12.75;;;;;;;;;;4946645;28;20213;-72
2022/11/26 07:42:55;;;;;;;42.63;13.35;;;;;;;;;;4936511;28;20479;-73
2022/11/26 07:45:21;;;;;;;43.47;15.73;;;;;;;;;;4944927;28;20481;-72
2022/11/26 07:47:47;;;;;;;34.85;13.63;;;;;;;;;;4936060;28;20543;-73
2022/11/26 07:50:13;;;;;;;42.25;11.82;;;;;;;;;;4924453;28;20041;-72
2022/11/26 07:52:40;;;;;;;49.05;12.98;;;;;;;;;;4940599;28;20039;-72
2022/11/26 07:55:06;;;;;;;38.70;12.10;;;;;;;;;;4925199;28;20040;-73
2022/11/26 07:57:32;;;;;;;34.50;12.50;;;;;;;;;;4963720;28;20030;-71
2022/11/26 07:59:58;;;;;;;48.63;14.15;;;;;;;;;;4954800;28;20035;-75
2022/11/26 08:02:24;;;;;;;42.03;12.85;;;;;;;;;;4920734;29;20492;-71
2022/11/26 08:04:50;;;;;;;43.65;14.55;;;;;;;;;;4954179;28;20036;-71
2022/11/26 08:07:16;;;;;;;38.80;13.48;;;;;;;;;;4949159;28;20059;-77
2022/11/26 08:09:42;;;;;;;40.20;12.40;;;;;;;;;;4948388;28;20030;-72
2022/11/26 08:12:08;;;;;;;40.20;13.07;;;;;;;;;;4935691;29;20039;-72
2022/11/26 08:14:34;;;;;;;43.88;12.27;;;;;;;;;;4953251;28;20053;-74
2022/11/26 08:17:00;;;;;;;38.05;13.07;;;;;;;;;;4954009;29;20083;-74
2022/11/26 08:19:26;;;;;;;45.67;11.77;;;;;;;;;;4959849;28;20039;-72
2022/11/26 08:21:52;;;;;;;38.28;13.65;;;;;;;;;;4962345;28;20078;-73
2022/11/26 08:24:19;;;;;;;44.30;13.48;;;;;;;;;;4957695;28;20058;-71
2022/11/26 08:26:45;;;;;;;37.70;12.52;;;;;;;;;;4939210;29;20380;-71
2022/11/26 08:29:12;;;;;;;41.58;12.85;;;;;;;;;;4961324;28;20039;-71
2022/11/26 08:31:40;;;;;;;43.72;14.80;;;;;;;;;;4950454;28;20069;-71
2022/11/26 08:34:06;;;;;;;36.03;12.18;;;;;;;;;;4928614;29;20036;-71
2022/11/26 08:36:32;;;;;;;42.42;13.13;;;;;;;;;;4942449;28;20059;-71
2022/11/26 08:38:59;;;;;;;37.22;12.63;;;;;;;;;;4960077;28;20036;-70
2022/11/26 08:41:25;;;;;;;36.67;12.23;;;;;;;;;;4941869;28;20139;-71
2022/11/26 08:43:51;;;;;;;36.92;12.38;;;;;;;;;;4956072;28;20055;-73
2022/11/26 08:46:18;;;;;;;44.50;12.38;;;;;;;;;;4957874;28;20110;-74
2022/11/26 08:48:44;;;;;;;37.17;11.93;;;;;;;;;;4937545;28;20047;-70
2022/11/26 08:51:11;;;;;;;34.75;12.18;;;;;;;;;;4949163;28;20035;-73
2022/11/26 08:53:38;;;;;;;31.25;11.63;;;;;;;;;;4953561;28;20118;-71
2022/11/26 08:56:04;;;;;;;37.08;11.35;;;;;;;;;;4954433;28;20034;-71
2022/11/26 08:58:32;;;;;;;51.08;12.73;;;;;;;;;;4954461;28;20039;-71
2022/11/26 09:00:58;;;;;;;44.95;11.65;;;;;;;;;;4935720;29;20053;-72
2022/11/26 09:03:24;;;;;;;50.03;12.93;;;;;;;;;;4952240;28;20129;-73
2022/11/26 09:05:50;;;;;;;43.20;12.07;;;;;;;;;;4961890;28;20130;-73
2022/11/26 09:08:16;;;;;;;37.90;16.45;;;;;;;;;;4934051;28;20044;-73
2022/11/26 09:10:42;;;;;;;77.43;30.23;;;;;;;;;;4944786;28;20023;-73
2022/11/26 09:13:08;;;;;;;36.15;12.07;;;;;;;;;;4933113;28;20046;-79
2022/11/26 09:15:36;;;;;;;44.55;13.20;;;;;;;;;;4952634;28;20031;-73
2022/11/26 09:18:02;;;;;;;36.22;11.13;;;;;;;;;;4955192;28;20023;-73
2022/11/26 09:20:29;;;;;;;33.25;11.75;;;;;;;;;;4956467;28;20050;-73
2022/11/26 09:22:56;;;;;;;36.17;11.07;;;;;;;;;;4961413;28;20046;-73
2022/11/26 09:25:22;;;;;;;41.95;10.10;;;;;;;;;;4961445;28;20039;-72
2022/11/26 09:27:48;;;;;;;32.83;11.05;;;;;;;;;;4953267;29;20062;-72
2022/11/26 09:30:15;;;;;;;31.95;10.23;;;;;;;;;;4956517;28;20034;-72
2022/11/26 09:32:41;;;;;;;39.22;11.32;;;;;;;;;;4963373;28;20384;-72
2022/11/26 09:35:07;;;;;;;31.17;11.65;;;;;;;;;;4952248;28;20031;-74
2022/11/26 09:37:33;;;;;;;32.63;10.27;;;;;;;;;;4951799;28;20027;-72
2022/11/26 09:39:59;;;;;;;34.40;10.23;;;;;;;;;;4953066;29;20035;-71
2022/11/26 09:42:25;;;;;;;33.42;9.63;;;;;;;;;;4952223;29;20080;-73
2022/11/26 09:45:10;;;;;;;36.42;10.40;;;;;;;;;;4952920;29;20024;-73
2022/11/26 09:47:37;;;;;;;28.52;10.02;;;;;;;;;;4951812;28;20174;-71
2022/11/26 09:50:08;;;;;;;28.70;9.77;;;;;;;;;;4958634;28;20519;-73
2022/11/26 09:52:41;;;;;;;28.08;9.93;;;;;;;;;;4952639;28;20411;-71
2022/11/26 09:55:14;;;;;;;38.83;11.15;;;;;;;;;;4950694;28;20133;-71
2022/11/26 09:57:46;;;;;;;36.90;12.10;;;;;;;;;;4952125;28;20031;-70
2022/11/26 10:00:21;;;;;;;45.17;10.63;;;;;;;;;;4956012;28;20130;-72
2022/11/26 10:02:47;;;;;;;28.13;9.80;;;;;;;;;;4934743;28;20043;-71
2022/11/26 10:05:13;;;;;;;31.92;10.63;;;;;;;;;;4951884;28;20373;-73
2022/11/26 10:07:46;;;;;;;31.55;10.05;;;;;;;;;;4961191;28;20392;-72
2022/11/26 10:10:16;;;;;;;30.45;11.13;;;;;;;;;;4963043;28;20031;-72
2022/11/26 10:12:51;;;;;;;38.03;10.07;;;;;;;;;;4970304;28;20034;-78
2022/11/26 10:15:18;;;;;;;34.22;10.98;;;;;;;;;;4952986;28;20118;-75
2022/11/26 10:17:53;;;;;;;43.67;10.80;;;;;;;;;;4955009;28;20159;-73
2022/11/26 10:20:19;;;;;;;35.95;12.05;;;;;;;;;;4955178;28;20048;-72
2022/11/26 10:22:51;;;;;;;34.63;9.85;;;;;;;;;;4933423;29;20115;-72
2022/11/26 10:25:19;;;;;;;43.50;13.02;;;;;;;;;;4923524;29;20153;-73
2022/11/26 10:27:46;;;;;;;45.88;12.55;;;;;;;;;;4924634;29;20051;-72
2022/11/26 10:30:19;;;;;;;44.28;11.70;;;;;;;;;;4925137;29;20032;-72
2022/11/26 10:32:45;;;;;;;43.00;11.68;;;;;;;;;;4928828;29;20095;-72
2022/11/26 10:35:20;;;;;;;34.42;10.85;;;;;;;;;;4926967;29;20026;-69
2022/11/26 10:37:46;;;;;;;37.35;12.43;;;;;;;;;;4942974;28;20031;-71
2022/11/26 10:40:26;;;;;;;46.10;16.98;;;;;;;;;;4920630;29;20103;-75
2022/11/26 10:42:58;;;;;;;35.22;9.80;;;;;;;;;;4930412;29;20108;-71
2022/11/26 10:45:25;;;;;;;43.13;11.25;;;;;;;;;;4919255;29;20036;-69
2022/11/26 10:47:51;;;;;;;43.85;10.40;;;;;;;;;;4924905;29;20019;-76
2022/11/26 10:50:25;;;;;;;37.50;11.75;;;;;;;;;;4924991;29;20425;-73
2022/11/26 10:52:51;;;;;;;33.42;11.88;;;;;;;;;;4922935;29;20492;-71
2022/11/26 10:55:21;;;;;;;37.65;11.65;;;;;;;;;;4910506;29;20039;-71
2022/11/26 10:57:50;;;;;;;29.17;10.88;;;;;;;;;;4922587;29;20484;-73
2022/11/26 11:00:48;;;;;;;41.15;11.20;;;;;;;;;;4905120;29;20122;-71
2022/11/26 11:03:20;;;;;;;31.40;10.40;;;;;;;;;;4879741;29;20051;-72
2022/11/26 11:05:47;;;;;;;38.90;11.98;;;;;;;;;;4925116;29;20092;-71
2022/11/26 11:08:14;;;;;;;41.45;13.00;;;;;;;;;;4923200;29;20040;-73
2022/11/26 11:10:52;;;;;;;37.00;11.82;;;;;;;;;;4926123;29;20454;-71
2022/11/26 11:13:18;;;;;;;40.67;12.48;;;;;;;;;;4926464;29;20043;-72
2022/11/26 11:15:44;;;;;;;37.88;12.27;;;;;;;;;;4927104;29;20036;-71
2022/11/26 11:18:13;;;;;;;39.83;10.68;;;;;;;;;;4921234;29;20449;-70
2022/11/26 11:20:44;;;;;;;30.88;9.68;;;;;;;;;;4928090;28;20331;-75
2022/11/26 11:23:10;;;;;;;35.00;11.90;;;;;;;;;;4938404;28;20122;-72
2022/11/26 11:25:40;;;;;;;42.22;11.20;;;;;;;;;;4953659;28;20137;-74
2022/11/26 11:28:12;;;;;;;35.25;11.77;;;;;;;;;;4950769;28;20031;-74
2022/11/26 11:30:41;;;;;;;35.20;11.77;;;;;;;;;;4952400;28;20030;-71
2022/11/26 11:33:11;;;;;;;41.22;14.27;;;;;;;;;;4948624;28;20039;-76
2022/11/26 11:35:37;;;;;;;29.88;10.45;;;;;;;;;;4955849;28;20051;-71
2022/11/26 11:38:03;;;;;;;39.25;10.98;;;;;;;;;;4954709;28;20058;-71
2022/11/26 11:40:32;;;;;;;40.22;10.43;;;;;;;;;;4949120;28;20094;-73
2022/11/26 11:43:02;;;;;;;31.88;8.65;;;;;;;;;;4956536;28;20067;-72
2022/11/26 11:45:33;;;;;;;47.92;9.60;;;;;;;;;;4962464;28;20095;-71
2022/11/26 11:48:18;;;;;;;35.72;11.40;;;;;;;;;;4959598;28;20683;-72
2022/11/26 11:50:50;;;;;;;33.92;9.40;;;;;;;;;;4956928;28;20027;-73
2022/11/26 11:53:19;;;;;;;29.73;9.00;;;;;;;;;;4957336;28;20105;-72
2022/11/26 11:55:57;;;;;;;34.70;9.23;;;;;;;;;;4956686;28;20060;-72
2022/11/26 11:58:47;;;;;;;34.55;9.50;;;;;;;;;;4948474;28;20024;-75
2022/11/26 12:01:17;;;;;;;32.60;9.75;;;;;;;;;;4953532;29;20035;-72
2022/11/26 12:03:53;;;;;;;28.75;9.32;;;;;;;;;;4954797;29;20130;-71
2022/11/26 12:06:25;;;;;;;21.17;8.13;;;;;;;;;;4951969;29;20031;-72
2022/11/26 12:08:55;;;;;;;27.75;9.95;;;;;;;;;;4954964;28;20107;-72
2022/11/26 12:11:30;;;;;;;35.00;9.68;;;;;;;;;;4953160;28;20050;-74
2022/11/26 12:13:59;;;;;;;27.95;8.23;;;;;;;;;;4954010;29;20027;-72
2022/11/26 12:16:27;;;;;;;35.75;10.65;;;;;;;;;;4942731;29;20019;-72
2022/11/26 12:18:59;;;;;;;37.42;9.20;;;;;;;;;;4954506;29;20027;-74
2022/11/26 12:21:32;;;;;;;28.95;9.55;;;;;;;;;;4941220;28;20079;-73
2022/11/26 12:24:08;;;;;;;28.60;8.50;;;;;;;;;;4938807;29;20086;-72
2022/11/26 12:26:38;;;;;;;33.30;9.18;;;;;;;;;;4946448;29;20066;-71
2022/11/26 12:29:13;;;;;;;29.05;8.77;;;;;;;;;;4939092;29;20027;-72
2022/11/26 12:31:45;;;;;;;27.85;9.57;;;;;;;;;;4941351;29;20040;-73
2022/11/26 12:34:29;;;;;;;30.98;8.55;;;;;;;;;;4934862;29;20031;-72
2022/11/26 12:37:03;;;;;;;26.95;7.78;;;;;;;;;;4935372;29;20036;-74
2022/11/26 12:39:29;;;;;;;26.67;8.65;;;;;;;;;;4937104;29;20031;-72
2022/11/26 12:42:07;;;;;;;29.73;7.75;;;;;;;;;;4947530;28;20039;-74
2022/11/26 12:44:36;;;;;;;40.95;9.65;;;;;;;;;;4933948;29;20071;-72
2022/11/26 12:47:14;;;;;;;28.45;8.30;;;;;;;;;;4918789;29;20039;-72
2022/11/26 12:50:00;;;;;;;31.20;8.85;;;;;;;;;;4934931;29;20032;-72
2022/11/26 12:52:36;;;;;;;34.63;9.73;;;;;;;;;;4925181;29;20431;-72
2022/11/26 12:55:02;;;;;;;24.00;8.43;;;;;;;;;;4943143;29;20035;-72
2022/11/26 12:57:30;;;;;;;21.25;7.88;;;;;;;;;;4921160;29;20031;-72
2022/11/26 13:00:11;;;;;;;27.13;8.65;;;;;;;;;;4935085;29;20032;-72
2022/11/26 13:02:39;;;;;;;31.02;9.40;;;;;;;;;;4936512;29;20489;-73
2022/11/26 13:05:06;;;;;;;34.33;9.45;;;;;;;;;;4933138;29;20664;-72
2022/11/26 13:07:38;;;;;;;44.80;9.98;;;;;;;;;;4933336;29;20488;-74
2022/11/26 13:10:27;;;;;;;25.80;8.75;;;;;;;;;;4933320;29;20015;-73
2022/11/26 13:12:53;;;;;;;27.88;9.82;;;;;;;;;;4935581;29;20092;-73
2022/11/26 13:15:24;;;;;;;33.88;9.48;;;;;;;;;;4939815;29;20091;-73
2022/11/26 13:17:51;;;;;;;30.92;8.70;;;;;;;;;;4941992;29;20532;-73
2022/11/26 13:20:27;;;;;;;27.23;9.43;;;;;;;;;;4934934;28;20170;-72
2022/11/26 13:23:02;;;;;;;29.05;10.38;;;;;;;;;;4945634;29;20595;-72
2022/11/26 13:25:40;;;;;;;26.77;9.90;;;;;;;;;;4953847;29;20421;-72
2022/11/26 13:28:09;;;;;;;31.35;8.98;;;;;;;;;;4951098;28;20469;-72
2022/11/26 13:30:38;;;;;;;26.00;8.02;;;;;;;;;;4966623;28;20035;-73
2022/11/26 13:33:20;;;;;;;34.97;9.38;;;;;;;;;;4958977;28;20059;-73
2022/11/26 13:35:55;;;;;;;36.33;8.45;;;;;;;;;;4952389;28;20087;-72
2022/11/26 13:38:40;;;;;;;39.15;9.82;;;;;;;;;;4961651;28;20023;-72
2022/11/26 13:41:15;;;;;;;29.73;8.48;;;;;;;;;;4973298;28;20058;-73
2022/11/26 13:43:48;;;;;;;37.00;9.63;;;;;;;;;;4972180;28;20130;-72
2022/11/26 13:46:24;;;;;;;30.30;8.80;;;;;;;;;;4934483;28;20035;-73
2022/11/26 13:49:02;;;;;;;28.95;8.25;;;;;;;;;;4944461;28;20097;-71
2022/11/26 13:51:46;;;;;;;35.22;11.90;;;;;;;;;;4968955;28;20034;-72
2022/11/26 13:54:18;;;;;;;27.45;8.32;;;;;;;;;;4948257;28;20031;-72
2022/11/26 13:56:44;;;;;;;29.83;9.57;;;;;;;;;;4964952;28;20117;-75
2022/11/26 13:59:18;;;;;;;38.08;10.68;;;;;;;;;;4965540;28;20034;-74
2022/11/26 14:01:45;;;;;;;37.80;9.05;;;;;;;;;;4946818;29;20122;-71
2022/11/26 14:04:31;;;;;;;27.55;8.90;;;;;;;;;;4954339;28;20049;-76
2022/11/26 14:07:04;;;;;;;29.20;11.05;;;;;;;;;;4929866;28;20043;-74
2022/11/26 14:09:59;;;;;;;34.70;9.43;;;;;;;;;;4952709;29;20038;-70
2022/11/26 14:12:44;;;;;;;31.10;9.85;;;;;;;;;;4936296;28;20031;-73
2022/11/26 14:15:28;;;;;;;33.38;9.60;;;;;;;;;;4966757;28;20035;-75
2022/11/26 14:17:55;;;;;;;37.50;10.10;;;;;;;;;;4953742;28;20035;-73
2022/11/26 14:20:21;;;;;;;30.73;12.32;;;;;;;;;;4955798;28;20027;-73
2022/11/26 14:22:47;;;;;;;39.85;12.10;;;;;;;;;;4938660;29;20040;-73
2022/11/26 14:25:14;;;;;;;31.70;11.02;;;;;;;;;;4933765;29;20101;-73
2022/11/26 14:27:41;;;;;;;35.25;11.80;;;;;;;;;;4933235;29;20068;-74
2022/11/26 14:30:07;;;;;;;29.58;11.18;;;;;;;;;;4944863;29;20035;-73
2022/11/26 14:32:36;;;;;;;32.60;10.70;;;;;;;;;;4932368;29;20038;-73
2022/11/26 14:35:03;;;;;;;37.45;11.68;;;;;;;;;;4935027;29;20058;-73